createdAt,value
2023-05-01T00:00:40.833Z,41.06
2023-05-01T00:05:40.150Z,42.09
2023-05-01T00:10:39.399Z,40.40
2023-05-01T00:15:38.652Z,38.69
2023-05-01T00:20:37.924Z,38.91
2023-05-01T00:25:37.201Z,39.74
2023-05-01T00:30:36.466Z,40.78
2023-05-01T00:35:35.761Z,41.80
2023-05-01T00:40:36.024Z,42.11
2023-05-01T00:45:34.325Z,43.11
2023-05-01T00:50:34.569Z,42.83
2023-05-01T00:55:32.826Z,43.55
2023-05-01T01:00:31.124Z,44.05
2023-05-01T01:05:32.430Z,44.27
2023-05-01T01:10:31.681Z,44.87
2023-05-01T01:15:30.956Z,44.79
2023-05-01T01:20:30.258Z,45.29
2023-05-01T01:25:28.503Z,45.92
2023-05-01T01:30:28.782Z,45.42
2023-05-01T01:35:27.051Z,45.51
2023-05-01T01:40:26.325Z,45.72
2023-05-01T01:45:26.577Z,46.24
2023-05-01T01:50:24.844Z,45.84
2023-05-01T01:55:26.096Z,46.44
2023-05-01T02:00:23.348Z,46.26
2023-05-01T02:05:23.584Z,46.36
2023-05-01T02:10:23.836Z,46.46
2023-05-01T02:15:21.098Z,47.06
2023-05-01T02:20:21.354Z,46.98
2023-05-01T02:25:20.608Z,46.88
2023-05-01T02:30:19.907Z,46.78
2023-05-01T02:35:19.204Z,46.78
2023-05-01T02:40:17.467Z,47.20
2023-05-01T02:45:16.764Z,47.00
2023-05-01T02:50:16.052Z,47.11
2023-05-01T02:55:16.509Z,46.50
2023-05-01T03:00:15.583Z,47.11
2023-05-01T03:05:14.848Z,47.31
2023-05-01T03:10:14.099Z,47.20
2023-05-01T03:15:13.402Z,46.91
2023-05-01T03:20:11.659Z,47.53
2023-05-01T03:25:10.923Z,47.63
2023-05-01T03:30:11.202Z,47.53
2023-05-01T03:35:09.550Z,47.43
2023-05-01T03:40:08.744Z,48.46
2023-05-01T03:45:10.109Z,46.11
2023-05-01T03:50:07.324Z,47.03
2023-05-01T03:55:07.592Z,46.83
2023-05-01T04:00:06.873Z,47.96
2023-05-01T04:05:05.159Z,48.08
2023-05-01T04:10:05.432Z,46.73
2023-05-01T04:15:03.673Z,47.25
2023-05-01T04:20:02.923Z,47.38
2023-05-01T04:25:03.201Z,47.67
2023-05-01T04:30:01.511Z,47.58
2023-05-01T04:35:01.785Z,47.58
2023-05-01T04:40:01.022Z,47.27
2023-05-01T04:44:59.273Z,46.53
2023-05-01T04:49:57.837Z,47.45
2023-05-01T04:54:57.977Z,46.65
2023-05-01T04:59:58.485Z,47.27
2023-05-01T05:04:58.206Z,46.75
2023-05-01T05:09:56.650Z,47.47
2023-05-01T05:14:53.698Z,48.00
2023-05-01T05:19:55.331Z,48.10
2023-05-01T05:24:53.247Z,47.90
2023-05-01T05:29:53.641Z,48.83
2023-05-01T05:34:51.821Z,48.60
2023-05-01T05:39:50.905Z,48.50
2023-05-01T05:44:52.268Z,48.20
2023-05-01T05:49:49.342Z,48.10
2023-05-01T05:54:49.627Z,49.45
2023-05-01T05:59:48.924Z,48.72
2023-05-01T06:04:47.235Z,48.63
2023-05-01T06:09:46.510Z,48.93
2023-05-01T06:14:45.789Z,48.63
2023-05-01T06:19:46.088Z,48.83
2023-05-01T06:24:45.391Z,49.35
2023-05-01T06:29:44.659Z,49.05
2023-05-01T06:34:42.948Z,49.65
2023-05-01T06:39:42.227Z,49.65
2023-05-01T06:44:41.520Z,48.83
2023-05-01T06:49:40.811Z,48.95
2023-05-01T06:54:40.116Z,49.88
2023-05-01T06:59:40.435Z,50.71
2023-05-01T07:04:39.727Z,49.55
2023-05-01T07:09:38.017Z,49.65
2023-05-01T07:14:37.383Z,48.52
2023-05-01T07:19:36.447Z,49.85
2023-05-01T07:24:35.718Z,49.35
2023-05-01T07:29:35.006Z,49.88
2023-05-01T07:34:34.265Z,49.55
2023-05-01T07:39:33.563Z,48.63
2023-05-01T07:44:32.840Z,49.35
2023-05-01T07:49:32.097Z,49.15
2023-05-01T07:54:31.328Z,48.43
2023-05-01T07:59:29.603Z,50.68
2023-05-01T08:04:29.912Z,48.83
2023-05-01T08:09:30.217Z,48.83
2023-05-01T08:14:28.518Z,50.48
2023-05-01T08:19:27.806Z,49.13
2023-05-01T08:24:27.080Z,49.45
2023-05-01T08:29:26.390Z,50.08
2023-05-01T08:34:25.678Z,49.53
2023-05-01T08:39:24.991Z,50.05
2023-05-01T08:44:24.266Z,49.45
2023-05-01T08:49:25.561Z,49.83
2023-05-01T08:54:22.839Z,50.35
2023-05-01T08:59:23.113Z,49.53
2023-05-01T09:04:21.446Z,49.13
2023-05-01T09:09:21.528Z,49.45
2023-05-01T09:14:19.763Z,50.15
2023-05-01T09:19:20.038Z,49.83
2023-05-01T09:24:20.316Z,50.76
2023-05-01T09:29:17.583Z,51.59
2023-05-01T09:34:17.846Z,47.00
2023-05-01T09:39:17.143Z,46.34
2023-05-01T09:44:15.426Z,45.39
2023-05-01T09:49:16.720Z,42.91
2023-05-01T09:54:14.030Z,42.97
2023-05-01T09:59:14.342Z,40.42
2023-05-01T10:04:13.670Z,41.03
2023-05-01T10:09:11.970Z,39.09
2023-05-01T10:14:12.293Z,40.06
2023-05-01T10:19:10.620Z,39.37
2023-05-01T10:24:09.900Z,38.52
2023-05-01T10:29:10.195Z,37.62
2023-05-01T10:34:08.462Z,39.57
2023-05-01T10:39:09.778Z,38.95
2023-05-01T10:44:07.027Z,38.43
2023-05-01T10:49:06.301Z,36.58
2023-05-01T10:54:05.597Z,36.16
2023-05-01T10:59:04.950Z,35.14
2023-05-01T11:04:06.005Z,36.05
2023-05-01T11:09:04.237Z,35.32
2023-05-01T11:14:02.499Z,35.11
2023-05-01T11:19:01.725Z,36.43
2023-05-01T11:24:00.982Z,36.94
2023-05-01T11:29:00.216Z,36.94
2023-05-01T11:33:59.444Z,38.48
2023-05-01T11:38:58.688Z,38.70
2023-05-01T11:43:58.968Z,39.69
2023-05-01T11:48:57.238Z,37.57
2023-05-01T11:53:55.534Z,38.56
2023-05-01T11:58:55.808Z,37.95
2023-05-01T12:03:56.196Z,37.85
2023-05-01T12:08:54.289Z,37.47
2023-05-01T12:13:54.567Z,37.75
2023-05-01T12:18:52.893Z,36.64
2023-05-01T12:23:53.090Z,36.13
2023-05-01T12:28:51.252Z,36.23
2023-05-01T12:33:50.405Z,35.52
2023-05-01T12:38:50.540Z,33.33
2023-05-01T12:43:48.876Z,34.63
2023-05-01T12:48:50.953Z,34.43
2023-05-01T12:53:47.320Z,34.05
2023-05-01T12:58:47.493Z,34.64
2023-05-01T13:03:45.669Z,35.53
2023-05-01T13:08:44.829Z,33.67
2023-05-01T13:13:43.989Z,33.70
2023-05-01T13:18:43.160Z,34.83
2023-05-01T13:23:44.308Z,35.32
2023-05-01T13:28:42.702Z,34.73
2023-05-01T13:33:39.844Z,34.12
2023-05-01T13:38:40.068Z,34.31
2023-05-01T13:43:40.220Z,34.73
2023-05-01T13:48:39.384Z,35.14
2023-05-01T13:53:37.529Z,37.05
2023-05-01T13:58:36.688Z,36.46
2023-05-01T14:03:37.037Z,36.66
2023-05-01T14:08:37.041Z,36.74
2023-05-01T14:13:34.177Z,36.96
2023-05-01T14:18:33.331Z,37.37
2023-05-01T14:23:32.471Z,35.93
2023-05-01T14:28:31.820Z,36.74
2023-05-01T14:33:30.970Z,38.20
2023-05-01T14:38:32.118Z,37.98
2023-05-01T14:43:30.453Z,39.95
2023-05-01T22:32:41.157Z,43.41
2023-05-01T22:37:39.413Z,42.73
2023-05-01T22:42:39.697Z,41.99
2023-05-01T22:47:39.009Z,46.69
2023-05-01T22:52:37.236Z,42.87
2023-05-01T22:57:37.495Z,39.31
2023-05-01T23:02:35.822Z,37.66
2023-05-01T23:07:36.061Z,36.93
2023-05-01T23:12:34.343Z,36.10
2023-05-01T23:17:33.647Z,36.73
2023-05-01T23:22:34.907Z,37.04
2023-05-01T23:27:34.167Z,37.24
2023-05-01T23:32:33.415Z,38.49
2023-05-01T23:37:30.655Z,39.42
2023-05-01T23:42:29.902Z,39.83
2023-05-01T23:47:29.196Z,40.36
2023-05-01T23:52:28.438Z,40.88
2023-05-01T23:57:27.703Z,41.30
